createdAt,value
2023-04-27T00:00:36.494Z,12.1574
2023-04-27T00:01:44.558Z,12.1601
2023-04-27T00:02:52.801Z,12.1586
2023-04-27T00:04:00.853Z,12.1586
2023-04-27T00:05:09.095Z,12.1574
2023-04-27T00:06:16.978Z,12.1511
2023-04-27T00:07:24.910Z,12.1490
2023-04-27T00:08:32.844Z,12.1447
2023-04-27T00:09:40.891Z,12.1239
2023-04-27T00:10:48.964Z,12.1172
2023-04-27T00:11:57.180Z,12.0924
2023-04-27T00:13:05.179Z,12.0899
2023-04-27T00:14:13.277Z,12.0748
2023-04-27T00:15:21.341Z,12.0628
2023-04-27T00:16:29.434Z,12.0743
2023-04-27T00:17:37.506Z,12.0851
2023-04-27T00:18:45.499Z,12.0880
2023-04-27T00:19:53.561Z,12.0890
2023-04-27T00:21:01.665Z,12.0640
2023-04-27T00:22:09.735Z,12.0649
2023-04-27T00:23:17.634Z,12.0684
2023-04-27T00:24:25.693Z,12.0859
2023-04-27T00:25:33.739Z,12.0809
2023-04-27T00:26:41.999Z,12.0729
2023-04-27T00:27:50.051Z,12.0792
2023-04-27T00:28:58.098Z,12.0651
2023-04-27T00:30:06.158Z,12.0737
2023-04-27T00:31:14.158Z,12.0771
2023-04-27T00:32:22.283Z,12.0844
2023-04-27T00:33:30.352Z,12.0886
2023-04-27T00:34:38.342Z,12.1040
2023-04-27T00:35:46.423Z,12.1126
2023-04-27T00:36:54.477Z,12.1111
2023-04-27T00:38:02.409Z,12.1187
2023-04-27T00:39:10.523Z,12.1176
2023-04-27T00:40:18.554Z,12.1197
2023-04-27T00:41:27.062Z,12.1151
2023-04-27T00:42:34.805Z,12.1139
2023-04-27T00:43:43.078Z,12.0891
2023-04-27T00:44:50.966Z,12.0987
2023-04-27T00:45:58.996Z,12.0924
2023-04-27T00:47:07.260Z,12.1008
2023-04-27T00:48:15.103Z,12.1078
2023-04-27T00:49:23.211Z,12.0979
2023-04-27T00:50:31.301Z,12.0806
2023-04-27T00:51:39.295Z,12.0926
2023-04-27T00:52:47.265Z,12.0825
2023-04-27T00:53:55.326Z,12.0764
2023-04-27T00:55:03.391Z,12.0830
2023-04-27T00:56:11.856Z,12.0842
2023-04-27T00:57:19.606Z,12.0817
2023-04-27T00:58:27.726Z,12.0630
2023-04-27T00:59:35.767Z,12.0562
2023-04-27T01:00:43.824Z,12.0464
2023-04-27T01:01:51.918Z,12.0382
2023-04-27T01:03:00.056Z,12.0369
2023-04-27T01:04:08.267Z,12.0439
2023-04-27T01:05:16.068Z,12.0092
2023-04-27T01:06:24.112Z,11.9789
2023-04-27T01:07:32.109Z,11.9764
2023-04-27T01:08:40.154Z,11.9614
2023-04-27T01:09:48.217Z,11.9360
2023-04-27T01:10:56.346Z,11.9177
2023-04-27T01:12:04.621Z,11.9068
2023-04-27T01:13:12.658Z,11.9156
2023-04-27T01:14:20.572Z,11.9097
2023-04-27T01:15:28.695Z,11.8973
2023-04-27T01:16:36.802Z,11.9192
2023-04-27T01:17:44.792Z,11.9356
2023-04-27T01:18:53.028Z,11.9419
2023-04-27T01:20:00.905Z,11.9472
2023-04-27T01:21:08.966Z,11.9514
2023-04-27T01:22:16.901Z,11.9429
2023-04-27T01:23:25.002Z,11.9461
2023-04-27T01:24:33.072Z,11.9612
2023-04-27T01:25:41.232Z,11.9795
2023-04-27T01:26:49.361Z,11.9963
2023-04-27T01:27:57.493Z,11.9984
2023-04-27T01:29:05.422Z,11.9881
2023-04-27T01:30:13.492Z,11.9980
2023-04-27T01:31:21.593Z,12.0077
2023-04-27T01:32:29.631Z,12.0146
2023-04-27T01:33:37.670Z,12.0527
2023-04-27T01:34:45.748Z,12.0399
2023-04-27T01:35:53.954Z,12.0134
2023-04-27T01:37:01.743Z,12.0190
2023-04-27T01:38:09.817Z,11.9919
2023-04-27T01:39:17.878Z,11.9999
2023-04-27T01:40:26.125Z,11.9848
2023-04-27T01:41:34.175Z,11.9903
2023-04-27T01:42:42.451Z,12.0003
2023-04-27T01:43:50.370Z,11.9970
2023-04-27T01:44:58.321Z,11.9984
2023-04-27T01:46:06.399Z,12.0256
2023-04-27T01:47:14.473Z,12.0350
2023-04-27T01:48:22.465Z,12.0357
2023-04-27T01:49:30.604Z,12.0497
2023-04-27T01:50:38.661Z,12.0638
2023-04-27T01:51:46.548Z,12.0617
2023-04-27T01:52:54.661Z,12.0687
2023-04-27T01:54:02.662Z,12.0596
2023-04-27T01:55:11.030Z,12.0556
2023-04-27T01:56:18.934Z,12.0296
2023-04-27T01:57:27.076Z,12.0218
2023-04-27T01:58:35.133Z,12.0382
2023-04-27T01:59:43.235Z,12.0583
2023-04-27T02:00:51.204Z,12.0489
2023-04-27T02:01:59.289Z,12.0470
2023-04-27T02:03:07.483Z,12.0510
2023-04-27T02:04:15.719Z,12.0630
2023-04-27T02:05:23.322Z,12.0686
2023-04-27T02:06:31.407Z,12.0432
2023-04-27T02:07:39.462Z,12.0209
2023-04-27T02:08:47.773Z,12.0041
2023-04-27T02:09:55.797Z,11.9957
2023-04-27T02:11:03.762Z,11.9827
2023-04-27T02:12:11.946Z,11.9638
2023-04-27T02:13:19.888Z,11.9293
2023-04-27T02:14:27.971Z,11.9051
2023-04-27T02:15:36.152Z,11.8990
2023-04-27T02:16:44.113Z,11.8910
2023-04-27T02:17:52.192Z,11.8795
2023-04-27T02:19:00.215Z,11.8690
2023-04-27T02:20:08.153Z,11.8605
2023-04-27T02:21:16.245Z,11.8683
2023-04-27T02:22:24.271Z,11.8679
2023-04-27T02:23:32.449Z,11.8643
2023-04-27T02:24:40.640Z,11.8532
2023-04-27T02:25:48.580Z,11.8452
2023-04-27T02:26:56.849Z,11.8374
2023-04-27T02:28:04.692Z,11.8412
2023-04-27T02:29:13.060Z,11.8322
2023-04-27T02:30:20.889Z,11.8303
2023-04-27T02:31:29.056Z,11.8381
2023-04-27T02:32:36.997Z,11.8282
2023-04-27T02:33:44.997Z,11.8278
2023-04-27T02:34:52.959Z,11.8288
2023-04-27T02:36:01.008Z,11.8284
2023-04-27T02:37:09.033Z,11.8343
2023-04-27T02:38:17.299Z,11.8313
2023-04-27T02:39:25.309Z,11.8341
2023-04-27T02:40:33.504Z,11.8341
2023-04-27T02:41:41.457Z,11.8318
2023-04-27T02:42:49.522Z,11.8215
2023-04-27T02:43:57.606Z,11.8111
2023-04-27T02:45:05.675Z,11.7815
2023-04-27T02:46:13.740Z,11.7678
2023-04-27T02:47:21.762Z,11.7453
2023-04-27T02:48:29.926Z,11.7004
2023-04-27T02:49:38.176Z,11.6644
2023-04-27T02:50:45.793Z,11.6495
2023-04-27T02:51:53.863Z,11.6278
2023-04-27T02:53:02.082Z,11.5959
2023-04-27T02:54:10.143Z,11.5585
2023-04-27T02:55:18.257Z,11.5457
2023-04-27T02:56:26.425Z,11.5410
2023-04-27T02:57:34.305Z,11.5219
2023-04-27T02:58:42.393Z,11.5040
2023-04-27T02:59:50.459Z,11.4794
2023-04-27T03:00:58.561Z,11.4782
2023-04-27T03:02:06.587Z,11.4643
2023-04-27T03:03:14.905Z,11.4534
2023-04-27T03:04:22.624Z,11.4414
2023-04-27T03:05:30.630Z,11.4206
2023-04-27T03:06:38.707Z,11.4282
2023-04-27T03:07:46.934Z,11.4153
2023-04-27T03:08:54.955Z,11.4126
2023-04-27T03:10:02.969Z,11.4145
2023-04-27T03:11:11.113Z,11.4179
2023-04-27T03:12:19.300Z,11.4174
2023-04-27T03:13:27.198Z,11.4092
2023-04-27T03:14:35.252Z,11.4151
2023-04-27T03:15:43.549Z,11.4138
2023-04-27T03:16:51.511Z,11.3956
2023-04-27T03:17:59.521Z,11.3848
2023-04-27T03:19:07.385Z,11.3914
2023-04-27T03:20:15.440Z,11.3880
2023-04-27T03:21:23.476Z,11.3838
2023-04-27T03:22:31.748Z,11.3621
2023-04-27T03:23:39.775Z,11.3602
2023-04-27T03:24:47.841Z,11.3567
2023-04-27T03:25:55.916Z,11.3544
2023-04-27T03:27:03.904Z,11.3531
2023-04-27T03:28:12.126Z,11.3594
2023-04-27T03:29:20.095Z,11.3558
2023-04-27T03:30:28.134Z,11.3342
2023-04-27T03:31:36.236Z,11.3275
2023-04-27T03:32:47.039Z,11.3235
2023-04-27T03:33:57.063Z,11.3295
2023-04-27T03:35:05.134Z,11.3186
2023-04-27T03:36:13.165Z,11.3117
2023-04-27T03:37:21.345Z,11.3211
2023-04-27T03:38:29.421Z,11.3266
2023-04-27T03:39:37.484Z,11.3212
2023-04-27T03:40:45.582Z,11.3338
2023-04-27T03:41:53.668Z,11.3279
2023-04-27T03:43:01.685Z,11.3283
2023-04-27T03:44:09.852Z,11.3270
2023-04-27T03:45:17.782Z,11.3262
2023-04-27T03:46:25.979Z,11.3102
2023-04-27T03:47:33.977Z,11.2997
2023-04-27T03:48:41.829Z,11.2802
2023-04-27T03:49:49.914Z,11.2736
2023-04-27T03:50:58.056Z,11.2650
2023-04-27T03:52:06.208Z,11.2575
2023-04-27T03:53:14.225Z,11.2591
2023-04-27T03:54:22.245Z,11.2688
2023-04-27T03:55:30.353Z,11.2678
2023-04-27T03:56:38.481Z,11.2724
2023-04-27T03:57:46.586Z,11.2701
2023-04-27T03:58:54.591Z,11.2545
2023-04-27T04:00:02.687Z,11.2556
2023-04-27T04:01:11.116Z,11.2537
2023-04-27T04:02:18.709Z,11.2619
2023-04-27T04:03:26.958Z,11.2425
2023-04-27T04:04:34.953Z,11.2087
2023-04-27T04:05:42.911Z,11.2022
2023-04-27T04:06:51.025Z,11.1845
2023-04-27T04:07:59.039Z,11.1957
2023-04-27T04:09:07.285Z,11.1807
2023-04-27T04:10:15.161Z,11.1803
2023-04-27T04:11:23.264Z,11.1742
2023-04-27T04:12:31.314Z,11.1845
2023-04-27T04:13:39.422Z,11.1919
2023-04-27T04:14:47.535Z,11.1889
2023-04-27T04:15:55.658Z,11.1978
2023-04-27T04:17:03.449Z,11.1912
2023-04-27T04:18:11.555Z,11.2053
2023-04-27T04:19:20.760Z,11.2041
2023-04-27T04:20:32.677Z,11.1873
2023-04-27T04:21:40.683Z,11.1612
2023-04-27T04:22:48.777Z,11.1460
2023-04-27T04:23:56.845Z,11.1158
2023-04-27T04:25:04.962Z,11.1004
2023-04-27T04:26:12.974Z,11.0664
2023-04-27T04:27:20.988Z,11.0315
2023-04-27T04:28:29.015Z,10.9737
2023-04-27T04:29:37.082Z,10.9670
2023-04-27T04:30:45.019Z,10.9272
2023-04-27T04:31:53.176Z,10.8913
2023-04-27T04:33:01.177Z,10.8753
2023-04-27T04:34:09.342Z,10.8675
2023-04-27T04:35:17.392Z,10.8654
2023-04-27T04:36:25.428Z,10.8719
2023-04-27T04:37:33.537Z,10.8759
2023-04-27T04:38:41.583Z,10.8858
2023-04-27T04:39:49.655Z,10.9056
2023-04-27T04:40:57.833Z,10.9560
2023-04-27T04:42:05.810Z,10.9764
2023-04-27T04:43:13.801Z,11.0344
2023-04-27T04:44:21.865Z,11.0643
2023-04-27T04:45:29.812Z,11.0908
2023-04-27T04:46:37.947Z,11.1086
2023-04-27T04:47:45.938Z,11.1345
2023-04-27T04:48:54.847Z,11.1707
2023-04-27T04:50:02.418Z,11.1929
2023-04-27T04:51:10.216Z,11.2186
2023-04-27T04:52:18.438Z,11.2406
2023-04-27T04:53:26.280Z,11.2491
2023-04-27T04:54:34.414Z,11.2703
2023-04-27T04:55:42.475Z,11.2989
2023-04-27T04:56:50.632Z,11.3054
2023-04-27T04:57:58.622Z,11.3144
2023-04-27T04:59:06.571Z,11.3140
2023-04-27T05:00:14.603Z,11.3205
2023-04-27T05:01:22.673Z,11.3294
2023-04-27T05:02:30.756Z,11.3449
2023-04-27T05:03:38.960Z,11.3565
2023-04-27T05:04:47.143Z,11.3796
2023-04-27T05:05:55.113Z,11.4179
2023-04-27T05:07:03.090Z,11.4326
2023-04-27T05:08:11.062Z,11.4771
2023-04-27T05:09:19.178Z,11.5051
2023-04-27T05:10:27.194Z,11.4988
2023-04-27T05:11:35.353Z,11.5103
2023-04-27T05:12:43.356Z,11.5156
2023-04-27T05:13:51.477Z,11.5114
2023-04-27T05:14:59.338Z,11.4973
2023-04-27T05:16:07.468Z,11.4988
2023-04-27T05:17:15.493Z,11.5171
2023-04-27T05:18:23.633Z,11.5248
2023-04-27T05:19:31.776Z,11.5532
2023-04-27T05:20:39.735Z,11.5759
2023-04-27T05:21:47.987Z,11.5972
2023-04-27T05:22:55.889Z,11.6003
2023-04-27T05:24:03.927Z,11.6171
2023-04-27T05:25:12.097Z,11.6329
2023-04-27T05:26:20.045Z,11.6808
2023-04-27T05:27:28.096Z,11.7351
2023-04-27T05:28:36.177Z,11.7889
2023-04-27T05:29:44.103Z,11.8442
2023-04-27T05:30:52.201Z,11.9156
2023-04-27T05:32:00.357Z,12.0201
2023-04-27T05:33:08.449Z,12.0796
2023-04-27T05:34:16.597Z,12.1464
2023-04-27T05:35:24.569Z,12.2219
2023-04-27T05:36:32.609Z,12.2828
2023-04-27T05:37:40.572Z,12.3417
2023-04-27T05:38:48.693Z,12.4119
2023-04-27T05:39:56.813Z,12.4958
2023-04-27T05:41:04.826Z,12.5679
2023-04-27T05:42:12.867Z,12.6324
2023-04-27T05:43:20.963Z,12.7070
2023-04-27T05:44:28.911Z,12.7800
2023-04-27T05:45:37.005Z,12.8149
2023-04-27T05:46:45.013Z,12.8347
2023-04-27T05:47:53.232Z,12.8489
2023-04-27T05:49:01.361Z,12.8616
2023-04-27T05:50:09.353Z,12.8765
2023-04-27T05:51:17.394Z,12.8996
2023-04-27T05:52:25.375Z,12.9461
2023-04-27T05:53:33.496Z,12.9999
2023-04-27T05:54:41.487Z,13.0461
2023-04-27T05:55:49.682Z,13.0802
2023-04-27T05:56:57.704Z,13.1069
2023-04-27T05:58:08.963Z,13.1237
2023-04-27T05:59:18.470Z,13.1338
2023-04-27T06:00:26.554Z,13.1556
2023-04-27T06:01:34.588Z,13.1716
2023-04-27T06:02:42.956Z,13.1861
2023-04-27T06:03:50.924Z,13.1970
2023-04-27T06:04:59.086Z,13.2298
2023-04-27T06:06:06.904Z,13.2536
2023-04-27T06:07:16.153Z,13.2837
2023-04-27T06:08:23.112Z,13.3139
2023-04-27T06:09:31.069Z,13.3236
2023-04-27T06:10:39.108Z,13.3450
2023-04-27T06:11:47.233Z,13.3736
2023-04-27T06:12:55.347Z,13.4148
2023-04-27T06:14:03.255Z,13.4712
2023-04-27T06:15:11.287Z,13.5285
2023-04-27T06:16:19.449Z,13.5731
2023-04-27T06:17:27.508Z,13.6229
2023-04-27T06:18:35.559Z,13.6843
2023-04-27T06:19:43.646Z,13.7543
2023-04-27T06:20:51.790Z,13.7985
2023-04-27T06:21:59.709Z,13.8344
2023-04-27T06:23:07.789Z,13.8731
2023-04-27T06:24:15.848Z,13.9515
2023-04-27T06:25:27.074Z,14.0011
2023-04-27T06:26:36.862Z,14.0460
2023-04-27T06:27:44.788Z,14.0702
2023-04-27T06:28:52.847Z,14.1077
2023-04-27T06:30:01.043Z,14.1909
2023-04-27T06:31:09.109Z,14.2760
2023-04-27T06:32:17.081Z,14.3412
2023-04-27T06:33:25.109Z,14.3862
2023-04-27T06:34:33.174Z,14.4430
2023-04-27T06:35:41.250Z,14.4970
2023-04-27T06:36:49.338Z,14.5521
2023-04-27T06:37:57.471Z,14.5850
2023-04-27T06:39:05.409Z,14.6279
2023-04-27T06:40:13.485Z,14.7055
2023-04-27T06:41:21.659Z,14.7457
2023-04-27T06:42:29.588Z,14.7667
2023-04-27T06:43:37.569Z,14.7707
2023-04-27T06:44:45.705Z,14.7622
2023-04-27T06:45:53.906Z,14.7528
2023-04-27T06:47:01.848Z,14.7303
2023-04-27T06:48:10.012Z,14.7126
2023-04-27T06:49:17.939Z,14.6649
2023-04-27T06:50:26.027Z,14.6525
2023-04-27T06:51:34.120Z,14.6492
2023-04-27T06:52:42.320Z,14.6601
2023-04-27T06:53:50.258Z,14.6859
2023-04-27T06:54:58.278Z,14.7145
2023-04-27T06:56:06.309Z,14.7459
2023-04-27T06:57:14.310Z,14.7639
2023-04-27T06:58:22.359Z,14.7890
2023-04-27T06:59:30.412Z,14.7995
2023-04-27T07:00:38.518Z,14.8186
2023-04-27T07:01:46.561Z,14.8270
2023-04-27T07:02:54.673Z,14.8514
2023-04-27T07:04:02.780Z,14.8688
2023-04-27T07:05:10.721Z,14.9004
2023-04-27T07:06:18.833Z,14.9422
2023-04-27T07:07:26.909Z,14.9525
2023-04-27T07:08:35.034Z,14.9691
2023-04-27T07:09:43.113Z,14.9649
2023-04-27T07:10:51.136Z,14.9884
2023-04-27T07:11:59.226Z,15.0023
2023-04-27T07:13:09.119Z,15.0088
2023-04-27T07:14:20.077Z,15.0098
2023-04-27T07:15:28.154Z,15.0261
2023-04-27T07:16:36.274Z,15.0477
2023-04-27T07:17:44.261Z,15.0626
2023-04-27T07:18:52.336Z,15.0776
2023-04-27T07:20:00.376Z,15.1026
2023-04-27T07:21:08.549Z,15.1163
2023-04-27T07:22:16.518Z,15.1419
2023-04-27T07:23:24.569Z,15.1711
2023-04-27T07:24:32.690Z,15.2018
2023-04-27T07:25:40.563Z,15.2460
2023-04-27T07:26:48.654Z,15.2964
2023-04-27T07:27:56.704Z,15.3248
2023-04-27T07:29:14.439Z,15.3353
2023-04-27T07:30:17.910Z,15.3562
2023-04-27T07:31:26.301Z,15.3874
2023-04-27T07:32:33.983Z,15.4397
2023-04-27T07:33:42.006Z,15.5074
2023-04-27T07:34:54.082Z,15.5692
2023-04-27T07:36:02.922Z,15.6291
2023-04-27T07:37:11.027Z,15.7084
2023-04-27T07:38:18.976Z,15.7866
2023-04-27T07:39:27.057Z,15.8328
2023-04-27T07:40:35.059Z,15.8780
2023-04-27T07:41:43.223Z,15.9239
2023-04-27T07:42:51.289Z,15.9836
2023-04-27T07:43:59.395Z,16.0203
2023-04-27T07:45:07.514Z,16.0321
2023-04-27T07:46:15.459Z,16.0327
2023-04-27T07:47:23.574Z,16.0235
2023-04-27T07:48:31.544Z,16.0422
2023-04-27T07:49:39.642Z,16.0668
2023-04-27T07:50:47.646Z,16.0933
2023-04-27T07:51:55.782Z,16.1269
2023-04-27T07:53:03.791Z,16.1635
2023-04-27T07:54:11.774Z,16.2194
2023-04-27T07:55:19.859Z,16.2726
2023-04-27T07:56:28.055Z,16.3169
2023-04-27T07:57:36.139Z,16.3556
2023-04-27T07:58:44.076Z,16.3764
2023-04-27T07:59:52.184Z,16.4021
2023-04-27T08:01:00.194Z,16.4149
2023-04-27T08:02:19.113Z,16.4302
2023-04-27T08:03:21.231Z,16.4046
2023-04-27T08:04:29.406Z,16.3947
2023-04-27T08:05:37.490Z,16.4082
2023-04-27T08:06:45.880Z,16.4134
2023-04-27T08:07:53.990Z,16.4614
2023-04-27T08:09:01.550Z,16.4988
2023-04-27T08:10:09.589Z,16.5146
2023-04-27T08:11:17.629Z,16.5087
2023-04-27T08:12:25.639Z,16.5045
2023-04-27T08:13:33.893Z,16.5114
2023-04-27T08:14:41.753Z,16.5663
2023-04-27T08:15:49.825Z,16.6840
2023-04-27T08:16:58.027Z,16.8334
2023-04-27T08:18:05.991Z,17.0420
2023-04-27T08:19:14.207Z,17.2400
2023-04-27T08:20:21.937Z,17.3808
2023-04-27T08:21:29.989Z,17.5645
2023-04-27T08:22:38.063Z,17.7697
2023-04-27T08:23:46.106Z,17.8819
2023-04-27T08:24:54.211Z,18.0436
2023-04-27T08:26:02.311Z,18.2036
2023-04-27T08:27:10.264Z,18.3226
2023-04-27T08:28:18.428Z,18.3942
2023-04-27T08:29:28.813Z,18.4985
2023-04-27T08:30:39.482Z,18.5698
2023-04-27T08:31:47.529Z,18.6496
2023-04-27T08:32:55.559Z,18.7451
2023-04-27T08:34:03.449Z,18.8157
2023-04-27T08:35:11.546Z,18.8378
2023-04-27T08:36:19.584Z,18.8443
2023-04-27T08:37:27.753Z,18.8378
2023-04-27T08:38:35.842Z,18.8167
2023-04-27T08:39:43.804Z,18.7764
2023-04-27T08:40:51.897Z,18.7018
2023-04-27T08:42:00.014Z,18.6234
2023-04-27T08:43:08.008Z,18.5767
2023-04-27T08:44:16.107Z,18.5544
2023-04-27T08:45:24.115Z,18.5527
2023-04-27T08:46:32.163Z,18.5710
2023-04-27T08:47:43.421Z,18.6200
2023-04-27T08:48:53.059Z,18.6918
2023-04-27T08:50:01.121Z,18.7583
2023-04-27T08:51:09.121Z,18.8294
2023-04-27T08:52:17.356Z,18.8546
2023-04-27T08:53:25.404Z,18.8890
2023-04-27T08:54:33.313Z,18.9254
2023-04-27T08:55:41.496Z,18.9771
2023-04-27T08:56:49.519Z,19.0383
2023-04-27T08:57:57.590Z,19.0785
2023-04-27T08:59:05.661Z,19.1091
2023-04-27T09:00:13.711Z,19.1585
2023-04-27T09:01:21.944Z,19.2218
2023-04-27T09:02:30.036Z,19.2559
2023-04-27T09:03:37.995Z,19.2554
2023-04-27T09:04:45.909Z,19.2212
2023-04-27T09:06:04.369Z,19.1712
2023-04-27T09:07:06.897Z,19.1652
2023-04-27T09:08:14.975Z,19.1712
2023-04-27T09:09:23.008Z,19.2145
2023-04-27T09:10:31.283Z,19.2475
2023-04-27T09:11:39.165Z,19.2947
2023-04-27T09:12:47.222Z,19.3160
2023-04-27T09:13:55.225Z,19.3355
2023-04-27T09:15:03.308Z,19.3347
2023-04-27T09:16:11.523Z,19.3366
2023-04-27T09:17:19.339Z,19.3517
2023-04-27T09:18:27.321Z,19.3729
2023-04-27T09:19:35.406Z,19.3881
2023-04-27T09:20:43.552Z,19.4234
2023-04-27T09:21:51.714Z,19.4860
2023-04-27T09:22:59.871Z,19.4883
2023-04-27T09:24:07.744Z,19.4774
2023-04-27T09:25:15.779Z,19.4781
2023-04-27T09:26:23.795Z,19.4791
2023-04-27T09:27:31.824Z,19.4734
2023-04-27T09:28:39.944Z,19.4852
2023-04-27T09:29:48.192Z,19.5243
2023-04-27T09:30:56.055Z,19.5613
2023-04-27T09:32:04.181Z,19.5939
2023-04-27T09:33:12.081Z,19.6023
2023-04-27T09:34:20.122Z,19.6122
2023-04-27T09:35:28.358Z,19.6439
2023-04-27T09:36:36.226Z,19.7183
2023-04-27T09:37:44.426Z,19.7929
2023-04-27T09:38:52.490Z,19.8314
2023-04-27T09:40:00.449Z,19.8442
2023-04-27T09:41:08.594Z,19.8451
2023-04-27T09:42:16.515Z,19.8196
2023-04-27T09:43:24.633Z,19.7894
2023-04-27T09:44:32.917Z,19.7520
2023-04-27T09:45:40.856Z,19.7328
2023-04-27T09:46:48.743Z,19.7311
2023-04-27T09:47:56.887Z,19.7293
2023-04-27T09:49:04.843Z,19.7356
2023-04-27T09:50:12.916Z,19.7541
2023-04-27T09:51:21.071Z,19.7807
2023-04-27T09:52:29.186Z,19.8466
2023-04-27T09:53:37.077Z,19.9451
2023-04-27T09:54:45.234Z,20.0505
2023-04-27T09:55:53.435Z,20.1114
2023-04-27T09:57:01.347Z,20.1734
2023-04-27T09:58:09.375Z,20.2651
2023-04-27T09:59:17.449Z,20.3414
2023-04-27T10:00:25.469Z,20.4084
2023-04-27T10:01:35.274Z,20.5001
2023-04-27T10:02:53.068Z,20.6337
2023-04-27T10:03:59.443Z,20.7287
2023-04-27T10:05:07.364Z,20.8112
2023-04-27T10:06:15.471Z,20.8339
2023-04-27T10:07:23.566Z,20.8625
2023-04-27T10:08:31.891Z,20.9201
2023-04-27T10:09:39.670Z,21.0332
2023-04-27T10:10:47.698Z,21.1696
2023-04-27T10:11:55.727Z,21.3212
2023-04-27T10:13:03.883Z,21.4660
2023-04-27T10:14:11.790Z,21.6861
2023-04-27T10:15:19.836Z,21.9594
2023-04-27T10:16:27.909Z,22.1210
2023-04-27T10:17:36.116Z,22.2570
2023-04-27T10:18:44.052Z,22.5696
2023-04-27T10:19:54.305Z,22.8981
2023-04-27T10:21:05.024Z,23.2182
2023-04-27T10:22:13.166Z,23.4417
2023-04-27T10:23:21.361Z,23.7659
2023-04-27T10:24:29.227Z,24.0288
2023-04-27T10:25:37.323Z,24.1428
2023-04-27T10:26:45.299Z,24.0944
2023-04-27T10:27:53.370Z,24.0139
2023-04-27T10:29:01.324Z,23.9729
2023-04-27T10:30:09.405Z,23.9349
2023-04-27T10:31:17.603Z,23.8945
2023-04-27T10:32:25.683Z,23.8880
2023-04-27T10:33:33.639Z,23.8874
2023-04-27T10:34:41.662Z,23.8439
2023-04-27T10:35:49.856Z,23.7720
2023-04-27T10:36:57.788Z,23.6627
2023-04-27T10:38:05.845Z,23.5792
2023-04-27T10:39:14.217Z,23.5916
2023-04-27T10:40:21.988Z,23.7249
2023-04-27T10:41:30.099Z,23.9429
2023-04-27T10:42:37.974Z,24.3219
2023-04-27T10:43:46.035Z,24.8589
2023-04-27T10:44:54.106Z,25.4093
2023-04-27T10:46:02.346Z,25.9001
2023-04-27T10:47:10.297Z,26.2068
2023-04-27T10:48:18.270Z,26.4305
2023-04-27T10:49:26.441Z,26.6102
2023-04-27T10:50:34.607Z,26.8154
2023-04-27T10:51:42.592Z,27.0806
2023-04-27T10:52:50.636Z,27.3342
2023-04-27T10:53:58.632Z,27.4775
2023-04-27T10:55:06.679Z,27.5772
2023-04-27T10:56:14.741Z,27.6724
2023-04-27T10:57:22.712Z,27.7750
2023-04-27T10:58:41.421Z,27.8471
2023-04-27T10:59:43.960Z,27.9651
2023-04-27T11:00:51.749Z,28.1964
2023-04-27T11:01:59.884Z,28.5094
2023-04-27T11:03:08.037Z,28.9315
2023-04-27T11:04:16.478Z,29.2941
2023-04-27T11:05:24.058Z,29.6859
2023-04-27T11:06:32.194Z,30.1469
2023-04-27T11:07:40.182Z,30.5272
2023-04-27T11:08:48.231Z,30.8461
2023-04-27T11:09:56.284Z,31.0792
2023-04-27T11:11:04.241Z,31.1973
2023-04-27T11:12:12.289Z,31.2272
2023-04-27T11:13:20.393Z,31.1767
2023-04-27T11:14:28.498Z,31.0256
2023-04-27T11:15:36.624Z,30.7019
2023-04-27T11:16:44.687Z,30.0708
2023-04-27T11:17:52.729Z,29.5563
2023-04-27T11:19:00.718Z,29.0909
2023-04-27T11:20:08.801Z,28.5540
2023-04-27T11:21:16.904Z,27.9429
2023-04-27T11:22:24.880Z,27.4029
2023-04-27T11:23:33.060Z,26.9131
2023-04-27T11:24:40.999Z,26.4063
2023-04-27T11:25:48.978Z,25.9081
2023-04-27T11:26:57.074Z,25.4519
2023-04-27T11:28:05.116Z,25.0420
2023-04-27T11:29:13.653Z,24.6878
2023-04-27T11:30:21.311Z,24.3681
2023-04-27T11:31:29.402Z,24.2081
2023-04-27T11:32:37.566Z,24.0785
2023-04-27T11:33:45.457Z,23.9244
2023-04-27T11:34:54.657Z,23.9134
2023-04-27T11:36:06.432Z,23.8535
2023-04-27T11:37:18.429Z,23.9590
2023-04-27T11:38:27.487Z,24.0138
2023-04-27T11:39:35.382Z,24.1588
2023-04-27T11:40:43.435Z,24.2458
2023-04-27T11:41:51.630Z,24.2624
2023-04-27T11:42:59.675Z,24.1995
2023-04-27T11:44:07.758Z,24.1245
2023-04-27T11:45:15.787Z,24.0890
2023-04-27T11:46:23.839Z,23.9967
2023-04-27T11:47:31.935Z,23.8960
2023-04-27T11:48:39.921Z,23.7722
2023-04-27T11:49:47.998Z,23.7806
2023-04-27T11:50:56.110Z,23.9778
2023-04-27T11:52:04.093Z,24.3149
2023-04-27T11:53:12.034Z,24.9767
2023-04-27T11:54:20.082Z,25.6985
2023-04-27T11:55:28.189Z,25.6476
2023-04-27T11:56:36.470Z,25.4133
2023-04-27T11:57:44.401Z,25.4633
2023-04-27T11:58:52.314Z,25.9169
2023-04-27T12:00:00.646Z,26.7411
2023-04-27T12:01:08.587Z,27.7501
2023-04-27T12:02:16.620Z,28.9380
2023-04-27T12:03:24.984Z,30.0732
2023-04-27T12:04:32.907Z,31.0681
2023-04-27T12:05:40.954Z,31.8688
2023-04-27T12:06:48.855Z,31.5797
2023-04-27T12:07:56.877Z,30.6529
2023-04-27T12:09:04.986Z,29.9533
2023-04-27T12:10:12.879Z,29.9287
2023-04-27T12:11:20.965Z,30.2003
2023-04-27T12:12:29.034Z,31.0126
2023-04-27T12:13:37.186Z,31.8814
2023-04-27T12:14:45.352Z,32.7005
2023-04-27T12:15:53.572Z,33.3783
2023-04-27T12:17:01.473Z,33.9719
2023-04-27T12:18:09.602Z,34.4697
2023-04-27T12:19:17.640Z,35.0460
2023-04-27T12:20:25.718Z,35.4995
2023-04-27T12:21:33.611Z,35.9182
2023-04-27T12:22:41.717Z,36.3079
2023-04-27T12:23:49.863Z,36.7163
2023-04-27T12:24:57.734Z,37.0825
2023-04-27T12:26:05.806Z,37.4351
2023-04-27T12:27:13.858Z,37.7747
2023-04-27T12:28:22.003Z,38.0127
2023-04-27T12:29:29.998Z,38.3433
2023-04-27T12:30:38.156Z,38.6370
2023-04-27T12:31:46.256Z,38.9216
2023-04-27T12:32:54.416Z,39.2344
2023-04-27T12:34:02.304Z,39.4711
2023-04-27T12:35:10.494Z,39.6723
2023-04-27T12:36:18.567Z,39.8280
2023-04-27T12:37:27.146Z,40.0067
2023-04-27T12:38:34.440Z,40.1600
2023-04-27T12:39:42.516Z,40.2619
2023-04-27T12:40:50.608Z,40.2329
2023-04-27T12:41:58.806Z,39.9466
2023-04-27T12:43:06.734Z,39.8613
2023-04-27T12:44:15.068Z,40.0759
2023-04-27T12:45:22.905Z,40.1610
2023-04-27T12:46:30.995Z,39.7507
2023-04-27T12:47:58.345Z,39.9146
2023-04-27T12:48:51.985Z,40.1945
2023-04-27T12:50:00.013Z,40.4364
2023-04-27T12:51:08.242Z,40.6752
2023-04-27T12:52:16.132Z,40.6624
2023-04-27T12:53:24.150Z,40.9728
2023-04-27T12:54:32.240Z,41.3163
2023-04-27T12:55:40.433Z,41.4698
2023-04-27T12:56:48.385Z,41.6920
2023-04-27T12:57:56.545Z,41.7775
2023-04-27T12:59:04.604Z,41.6218
2023-04-27T13:00:12.690Z,41.2879
2023-04-27T13:01:20.634Z,40.4204
2023-04-27T13:02:28.938Z,39.6756
2023-04-27T13:03:37.095Z,38.4369
2023-04-27T13:04:45.055Z,37.8624
2023-04-27T13:05:53.028Z,38.2429
2023-04-27T13:07:00.938Z,38.3810
2023-04-27T13:08:08.997Z,38.2032
2023-04-27T13:09:17.099Z,38.1004
2023-04-27T13:10:25.226Z,37.1670
2023-04-27T13:11:33.282Z,36.5623
2023-04-27T13:12:41.608Z,36.5763
2023-04-27T13:13:49.411Z,36.1667
2023-04-27T13:14:57.547Z,36.0540
2023-04-27T13:16:05.598Z,35.1698
2023-04-27T13:17:13.627Z,34.3317
2023-04-27T13:18:21.663Z,33.4712
2023-04-27T13:19:29.725Z,32.6261
2023-04-27T13:20:38.002Z,32.1029
2023-04-27T13:21:45.709Z,31.8107
2023-04-27T13:22:53.773Z,31.3474
2023-04-27T13:24:01.841Z,30.9812
2023-04-27T13:25:10.020Z,30.7494
2023-04-27T13:26:17.968Z,30.4118
2023-04-27T13:27:26.421Z,30.1213
2023-04-27T13:28:34.161Z,29.6607
2023-04-27T13:29:42.249Z,29.1613
2023-04-27T13:30:50.251Z,28.5981
2023-04-27T13:31:58.384Z,28.1603
2023-04-27T13:33:21.096Z,28.8445
2023-04-27T13:34:19.322Z,30.1147
2023-04-27T13:35:27.413Z,31.2531
2023-04-27T13:36:35.306Z,32.1901
2023-04-27T13:37:43.402Z,33.1003
2023-04-27T13:38:51.444Z,33.8979
2023-04-27T13:39:59.634Z,33.7295
2023-04-27T13:41:07.664Z,34.0511
2023-04-27T13:42:15.701Z,34.8032
2023-04-27T13:43:23.806Z,35.5304
2023-04-27T13:44:31.972Z,36.2718